createdAt,value
2023-09-22T00:08:29.376Z,95.0
2023-09-22T00:21:29.438Z,95.0
2023-09-22T00:34:29.480Z,94.0
2023-09-22T00:47:29.573Z,94.0
2023-09-22T01:00:29.608Z,94.0
2023-09-22T01:13:29.580Z,95.0
2023-09-22T01:26:29.603Z,95.0
2023-09-22T01:39:29.720Z,96.0
2023-09-22T01:52:29.592Z,97.0
2023-09-22T02:05:29.642Z,96.0
2023-09-22T02:18:29.698Z,97.0
2023-09-22T02:31:29.676Z,97.0
2023-09-22T02:44:29.635Z,96.0
2023-09-22T02:57:29.688Z,95.0
2023-09-22T03:10:29.658Z,94.0
2023-09-22T03:23:29.646Z,94.0
2023-09-22T03:36:29.694Z,94.0
2023-09-22T03:49:29.692Z,95.0
2023-09-22T04:02:29.815Z,95.0
2023-09-22T04:15:29.793Z,96.0
2023-09-22T04:28:29.738Z,96.0
2023-09-22T04:41:29.740Z,97.0
2023-09-22T04:54:29.781Z,97.0
2023-09-22T05:08:29.734Z,96.0
2023-09-22T05:22:29.737Z,95.0
2023-09-22T05:36:29.769Z,96.0
2023-09-22T05:50:29.752Z,97.0
2023-09-22T06:04:29.803Z,97.0
2023-09-22T06:19:29.755Z,97.0
2023-09-22T06:33:29.825Z,97.0
2023-09-22T06:47:29.838Z,97.0
2023-09-22T07:01:29.826Z,97.0
2023-09-22T07:15:29.790Z,97.0
2023-09-22T07:29:29.805Z,97.0
2023-09-22T07:43:29.888Z,97.0
2023-09-22T07:57:29.831Z,97.0
2023-09-22T08:11:29.795Z,97.0
2023-09-22T08:25:29.811Z,96.0
2023-09-22T08:39:29.910Z,96.0
2023-09-22T08:53:29.804Z,96.0
2023-09-22T09:07:29.817Z,96.0
2023-09-22T09:22:29.847Z,96.0
2023-09-22T09:36:29.839Z,96.0
2023-09-22T09:51:29.842Z,97.0
2023-09-22T10:05:29.846Z,97.0
2023-09-22T10:21:29.916Z,96.0
2023-09-22T10:35:29.849Z,95.0
2023-09-22T10:49:29.846Z,95.0
2023-09-22T11:03:29.936Z,94.0
2023-09-22T11:17:29.916Z,93.0
2023-09-22T11:31:29.932Z,89.0
2023-09-22T11:56:29.916Z,88.0
2023-09-22T12:10:29.934Z,91.0
2023-09-22T12:25:30.007Z,91.0
2023-09-22T12:39:30.069Z,87.0
2023-09-22T12:53:29.972Z,87.0
2023-09-22T13:07:30.004Z,88.0
2023-09-22T13:21:29.999Z,86.0
2023-09-22T13:35:30.012Z,85.0
2023-09-22T13:49:30.055Z,83.0
2023-09-22T14:03:30.059Z,87.0
2023-09-22T14:17:30.104Z,87.0
2023-09-22T14:32:30.080Z,88.0
2023-09-22T14:46:30.061Z,92.0
2023-09-22T15:00:30.053Z,93.0
2023-09-22T15:15:30.050Z,94.0
2023-09-22T15:29:30.064Z,93.0
2023-09-22T15:43:30.115Z,92.0
2023-09-22T15:57:30.084Z,92.0
2023-09-22T16:11:30.267Z,93.0
2023-09-22T16:25:30.106Z,93.0
2023-09-22T16:39:30.265Z,94.0
2023-09-22T16:53:30.605Z,94.0
2023-09-22T17:08:30.648Z,95.0
2023-09-22T17:22:30.260Z,95.0
2023-09-22T17:36:30.097Z,96.0
2023-09-22T17:50:30.108Z,97.0
2023-09-22T18:03:30.120Z,97.0
2023-09-22T18:16:30.170Z,97.0
2023-09-22T18:29:30.162Z,97.0
2023-09-22T18:42:30.096Z,97.0
2023-09-22T18:55:30.135Z,97.0
2023-09-22T19:08:30.126Z,97.0
2023-09-22T19:21:30.168Z,97.0
2023-09-22T19:34:30.157Z,97.0
2023-09-22T19:47:30.174Z,97.0
2023-09-22T20:00:30.170Z,97.0
2023-09-22T20:13:30.208Z,98.0
2023-09-22T20:26:30.149Z,97.0
2023-09-22T20:39:30.274Z,95.0
2023-09-22T20:52:30.180Z,95.0
2023-09-22T21:05:30.168Z,96.0
2023-09-22T21:18:30.157Z,95.0
2023-09-22T21:31:30.199Z,96.0
2023-09-22T21:44:30.186Z,97.0
2023-09-22T21:57:30.216Z,97.0
2023-09-22T22:10:30.290Z,97.0
2023-09-22T22:23:30.322Z,98.0
2023-09-22T22:36:30.384Z,98.0
2023-09-22T22:49:30.381Z,99.0
2023-09-22T23:02:30.399Z,99.0
2023-09-22T23:15:30.381Z,99.0
2023-09-22T23:28:30.394Z,99.0
2023-09-22T23:41:30.423Z,99.0
2023-09-22T23:54:30.425Z,99.0
